sensor_id;sensor_type;location;lat;lon;timestamp;P1;durP1;ratioP1;P2;durP2;ratioP2
71360;SDS011;59166;48.908;1.870;2022-09-24T00:01:59;10.82;;;4.32;;
71360;SDS011;59166;48.908;1.870;2022-09-24T00:07:02;12.67;;;5.00;;
71360;SDS011;59166;48.908;1.870;2022-09-24T00:12:03;12.45;;;5.25;;
71360;SDS011;59166;48.908;1.870;2022-09-24T00:17:04;11.98;;;4.63;;
71360;SDS011;59166;48.908;1.870;2022-09-24T00:22:06;12.30;;;4.87;;
71360;SDS011;59166;48.908;1.870;2022-09-24T00:27:07;11.20;;;4.55;;
71360;SDS011;59166;48.908;1.870;2022-09-24T00:32:08;11.87;;;4.67;;
71360;SDS011;59166;48.908;1.870;2022-09-24T00:37:10;11.15;;;4.57;;
71360;SDS011;59166;48.908;1.870;2022-09-24T00:42:11;10.73;;;4.10;;
71360;SDS011;59166;48.908;1.870;2022-09-24T00:47:12;10.53;;;4.43;;
71360;SDS011;59166;48.908;1.870;2022-09-24T00:52:18;10.73;;;4.10;;
71360;SDS011;59166;48.908;1.870;2022-09-24T00:57:19;10.93;;;4.68;;
71360;SDS011;59166;48.908;1.870;2022-09-24T01:02:20;11.20;;;4.90;;
71360;SDS011;59166;48.908;1.870;2022-09-24T01:07:22;11.75;;;4.75;;
71360;SDS011;59166;48.908;1.870;2022-09-24T01:12:24;13.18;;;5.65;;
71360;SDS011;59166;48.908;1.870;2022-09-24T01:17:35;11.60;;;5.33;;
71360;SDS011;59166;48.908;1.870;2022-09-24T01:22:47;11.00;;;5.10;;
71360;SDS011;59166;48.908;1.870;2022-09-24T01:28:06;12.48;;;5.32;;
71360;SDS011;59166;48.908;1.870;2022-09-24T01:33:19;11.23;;;5.20;;
71360;SDS011;59166;48.908;1.870;2022-09-24T01:38:41;11.73;;;5.60;;
71360;SDS011;59166;48.908;1.870;2022-09-24T01:43:44;11.88;;;5.40;;
71360;SDS011;59166;48.908;1.870;2022-09-24T01:48:47;13.25;;;5.68;;
71360;SDS011;59166;48.908;1.870;2022-09-24T01:53:48;11.67;;;5.13;;
71360;SDS011;59166;48.908;1.870;2022-09-24T01:58:55;12.73;;;5.47;;
71360;SDS011;59166;48.908;1.870;2022-09-24T02:04:04;11.85;;;5.22;;
71360;SDS011;59166;48.908;1.870;2022-09-24T02:14:28;13.75;;;5.68;;
71360;SDS011;59166;48.908;1.870;2022-09-24T02:19:37;12.15;;;5.07;;
71360;SDS011;59166;48.908;1.870;2022-09-24T02:24:43;12.47;;;5.47;;
71360;SDS011;59166;48.908;1.870;2022-09-24T02:29:47;12.77;;;5.03;;
71360;SDS011;59166;48.908;1.870;2022-09-24T02:34:50;13.13;;;5.70;;
71360;SDS011;59166;48.908;1.870;2022-09-24T02:39:54;12.13;;;5.13;;
71360;SDS011;59166;48.908;1.870;2022-09-24T02:44:55;12.40;;;5.50;;
71360;SDS011;59166;48.908;1.870;2022-09-24T02:49:58;12.55;;;5.50;;
71360;SDS011;59166;48.908;1.870;2022-09-24T02:54:58;11.95;;;5.50;;
71360;SDS011;59166;48.908;1.870;2022-09-24T02:59:59;11.20;;;5.17;;
71360;SDS011;59166;48.908;1.870;2022-09-24T03:05:06;11.48;;;5.15;;
71360;SDS011;59166;48.908;1.870;2022-09-24T03:10:07;13.60;;;5.50;;
71360;SDS011;59166;48.908;1.870;2022-09-24T03:15:09;12.47;;;5.37;;
71360;SDS011;59166;48.908;1.870;2022-09-24T03:20:12;11.75;;;5.03;;
71360;SDS011;59166;48.908;1.870;2022-09-24T03:25:13;11.20;;;5.10;;
71360;SDS011;59166;48.908;1.870;2022-09-24T03:30:14;11.27;;;5.37;;
71360;SDS011;59166;48.908;1.870;2022-09-24T03:35:16;11.88;;;5.20;;
71360;SDS011;59166;48.908;1.870;2022-09-24T03:40:17;12.38;;;5.43;;
71360;SDS011;59166;48.908;1.870;2022-09-24T03:45:18;12.57;;;5.07;;
71360;SDS011;59166;48.908;1.870;2022-09-24T03:50:20;12.98;;;5.10;;
71360;SDS011;59166;48.908;1.870;2022-09-24T03:55:21;14.20;;;5.40;;
71360;SDS011;59166;48.908;1.870;2022-09-24T04:00:22;12.40;;;5.30;;
71360;SDS011;59166;48.908;1.870;2022-09-24T04:05:25;12.27;;;5.28;;
71360;SDS011;59166;48.908;1.870;2022-09-24T04:10:26;10.53;;;4.63;;
71360;SDS011;59166;48.908;1.870;2022-09-24T04:15:27;11.20;;;4.93;;
71360;SDS011;59166;48.908;1.870;2022-09-24T04:20:29;10.65;;;4.72;;
71360;SDS011;59166;48.908;1.870;2022-09-24T04:25:30;11.73;;;5.20;;
71360;SDS011;59166;48.908;1.870;2022-09-24T04:30:33;12.27;;;5.10;;
71360;SDS011;59166;48.908;1.870;2022-09-24T04:35:36;11.77;;;5.10;;
71360;SDS011;59166;48.908;1.870;2022-09-24T04:40:37;12.73;;;5.82;;
71360;SDS011;59166;48.908;1.870;2022-09-24T04:45:38;11.77;;;5.10;;
71360;SDS011;59166;48.908;1.870;2022-09-24T04:50:40;12.18;;;5.00;;
71360;SDS011;59166;48.908;1.870;2022-09-24T04:55:41;11.20;;;5.00;;
71360;SDS011;59166;48.908;1.870;2022-09-24T05:00:42;12.30;;;5.50;;
71360;SDS011;59166;48.908;1.870;2022-09-24T05:05:45;11.82;;;5.15;;
71360;SDS011;59166;48.908;1.870;2022-09-24T05:10:46;12.68;;;5.50;;
71360;SDS011;59166;48.908;1.870;2022-09-24T05:15:47;12.73;;;5.57;;
71360;SDS011;59166;48.908;1.870;2022-09-24T05:20:49;11.60;;;5.38;;
71360;SDS011;59166;48.908;1.870;2022-09-24T05:25:50;11.37;;;5.30;;
71360;SDS011;59166;48.908;1.870;2022-09-24T05:30:52;12.13;;;5.03;;
71360;SDS011;59166;48.908;1.870;2022-09-24T05:35:58;12.25;;;5.38;;
71360;SDS011;59166;48.908;1.870;2022-09-24T05:40:58;12.33;;;5.70;;
71360;SDS011;59166;48.908;1.870;2022-09-24T05:45:59;11.85;;;5.15;;
71360;SDS011;59166;48.908;1.870;2022-09-24T05:51:02;12.40;;;5.57;;
71360;SDS011;59166;48.908;1.870;2022-09-24T05:56:03;13.35;;;6.57;;
71360;SDS011;59166;48.908;1.870;2022-09-24T06:01:04;12.93;;;5.82;;
71360;SDS011;59166;48.908;1.870;2022-09-24T06:06:06;13.93;;;6.20;;
71360;SDS011;59166;48.908;1.870;2022-09-24T06:11:07;13.75;;;5.82;;
71360;SDS011;59166;48.908;1.870;2022-09-24T06:16:08;13.88;;;6.07;;
71360;SDS011;59166;48.908;1.870;2022-09-24T06:21:12;13.20;;;6.00;;
71360;SDS011;59166;48.908;1.870;2022-09-24T06:26:14;12.85;;;6.22;;
71360;SDS011;59166;48.908;1.870;2022-09-24T06:31:15;12.32;;;5.55;;
71360;SDS011;59166;48.908;1.870;2022-09-24T06:36:17;13.17;;;6.07;;
71360;SDS011;59166;48.908;1.870;2022-09-24T06:41:18;14.27;;;6.35;;
71360;SDS011;59166;48.908;1.870;2022-09-24T06:46:20;14.97;;;7.03;;
71360;SDS011;59166;48.908;1.870;2022-09-24T06:51:22;15.00;;;5.97;;
71360;SDS011;59166;48.908;1.870;2022-09-24T06:56:23;14.13;;;6.55;;
71360;SDS011;59166;48.908;1.870;2022-09-24T07:01:24;14.60;;;6.30;;
71360;SDS011;59166;48.908;1.870;2022-09-24T07:06:26;14.85;;;6.53;;
71360;SDS011;59166;48.908;1.870;2022-09-24T07:11:27;14.75;;;6.80;;
71360;SDS011;59166;48.908;1.870;2022-09-24T07:16:28;15.83;;;6.83;;
71360;SDS011;59166;48.908;1.870;2022-09-24T07:21:30;14.02;;;6.40;;
71360;SDS011;59166;48.908;1.870;2022-09-24T07:26:31;13.90;;;6.30;;
71360;SDS011;59166;48.908;1.870;2022-09-24T07:31:32;13.23;;;6.20;;
71360;SDS011;59166;48.908;1.870;2022-09-24T07:36:35;12.95;;;6.20;;
71360;SDS011;59166;48.908;1.870;2022-09-24T07:41:35;15.97;;;6.90;;
71360;SDS011;59166;48.908;1.870;2022-09-24T07:46:36;14.50;;;7.05;;
71360;SDS011;59166;48.908;1.870;2022-09-24T07:51:38;13.70;;;6.50;;
71360;SDS011;59166;48.908;1.870;2022-09-24T07:56:39;14.35;;;6.55;;
71360;SDS011;59166;48.908;1.870;2022-09-24T08:01:40;13.85;;;6.80;;
71360;SDS011;59166;48.908;1.870;2022-09-24T08:06:43;15.10;;;6.93;;
71360;SDS011;59166;48.908;1.870;2022-09-24T08:11:43;15.38;;;7.22;;
71360;SDS011;59166;48.908;1.870;2022-09-24T08:16:44;16.10;;;7.45;;
71360;SDS011;59166;48.908;1.870;2022-09-24T08:21:46;14.00;;;6.60;;
71360;SDS011;59166;48.908;1.870;2022-09-24T08:26:47;14.38;;;6.75;;
71360;SDS011;59166;48.908;1.870;2022-09-24T08:31:48;14.93;;;6.40;;
71360;SDS011;59166;48.908;1.870;2022-09-24T08:36:50;13.13;;;6.32;;
71360;SDS011;59166;48.908;1.870;2022-09-24T08:41:52;13.20;;;6.30;;
71360;SDS011;59166;48.908;1.870;2022-09-24T08:46:55;15.13;;;5.95;;
71360;SDS011;59166;48.908;1.870;2022-09-24T08:52:05;14.60;;;6.32;;
71360;SDS011;59166;48.908;1.870;2022-09-24T08:57:14;12.20;;;5.53;;
71360;SDS011;59166;48.908;1.870;2022-09-24T09:02:20;14.05;;;6.40;;
71360;SDS011;59166;48.908;1.870;2022-09-24T09:07:38;13.75;;;6.55;;
71360;SDS011;59166;48.908;1.870;2022-09-24T09:12:45;12.67;;;5.97;;
71360;SDS011;59166;48.908;1.870;2022-09-24T09:17:53;13.37;;;5.67;;
71360;SDS011;59166;48.908;1.870;2022-09-24T09:23:02;12.80;;;5.93;;
71360;SDS011;59166;48.908;1.870;2022-09-24T09:28:09;10.70;;;5.20;;
71360;SDS011;59166;48.908;1.870;2022-09-24T09:33:18;12.93;;;5.63;;
71360;SDS011;59166;48.908;1.870;2022-09-24T09:38:28;11.98;;;5.53;;
71360;SDS011;59166;48.908;1.870;2022-09-24T09:43:37;11.07;;;5.22;;
71360;SDS011;59166;48.908;1.870;2022-09-24T09:48:42;11.90;;;5.37;;
71360;SDS011;59166;48.908;1.870;2022-09-24T09:53:56;11.85;;;5.57;;
71360;SDS011;59166;48.908;1.870;2022-09-24T09:59:02;13.38;;;5.85;;
71360;SDS011;59166;48.908;1.870;2022-09-24T10:04:06;11.57;;;5.37;;
71360;SDS011;59166;48.908;1.870;2022-09-24T10:09:28;13.67;;;5.30;;
71360;SDS011;59166;48.908;1.870;2022-09-24T10:14:28;11.55;;;5.10;;
71360;SDS011;59166;48.908;1.870;2022-09-24T10:19:29;10.77;;;5.17;;
71360;SDS011;59166;48.908;1.870;2022-09-24T10:24:35;11.80;;;5.25;;
71360;SDS011;59166;48.908;1.870;2022-09-24T10:29:41;12.02;;;5.30;;
71360;SDS011;59166;48.908;1.870;2022-09-24T10:34:42;10.50;;;4.77;;
71360;SDS011;59166;48.908;1.870;2022-09-24T10:39:59;10.90;;;5.03;;
71360;SDS011;59166;48.908;1.870;2022-09-24T10:45:02;11.68;;;5.07;;
71360;SDS011;59166;48.908;1.870;2022-09-24T10:50:10;10.53;;;5.17;;
71360;SDS011;59166;48.908;1.870;2022-09-24T10:55:35;11.87;;;5.30;;
71360;SDS011;59166;48.908;1.870;2022-09-24T11:00:42;10.65;;;4.90;;
71360;SDS011;59166;48.908;1.870;2022-09-24T11:05:50;13.30;;;5.22;;
71360;SDS011;59166;48.908;1.870;2022-09-24T11:16:22;11.35;;;5.13;;
71360;SDS011;59166;48.908;1.870;2022-09-24T11:21:41;12.70;;;5.40;;
71360;SDS011;59166;48.908;1.870;2022-09-24T11:26:59;13.30;;;5.40;;
71360;SDS011;59166;48.908;1.870;2022-09-24T11:32:13;12.35;;;5.50;;
71360;SDS011;59166;48.908;1.870;2022-09-24T11:37:24;11.23;;;5.45;;
71360;SDS011;59166;48.908;1.870;2022-09-24T11:42:40;14.13;;;6.50;;
71360;SDS011;59166;48.908;1.870;2022-09-24T11:48:13;12.67;;;6.30;;
71360;SDS011;59166;48.908;1.870;2022-09-24T11:53:35;13.27;;;6.25;;
71360;SDS011;59166;48.908;1.870;2022-09-24T11:58:41;11.73;;;6.03;;
71360;SDS011;59166;48.908;1.870;2022-09-24T12:03:46;15.50;;;6.40;;
71360;SDS011;59166;48.908;1.870;2022-09-24T12:08:55;11.65;;;5.97;;
71360;SDS011;59166;48.908;1.870;2022-09-24T12:14:02;12.35;;;5.90;;
71360;SDS011;59166;48.908;1.870;2022-09-24T12:19:14;13.37;;;6.27;;
71360;SDS011;59166;48.908;1.870;2022-09-24T12:24:21;13.05;;;6.30;;
71360;SDS011;59166;48.908;1.870;2022-09-24T12:29:37;12.88;;;5.75;;
71360;SDS011;59166;48.908;1.870;2022-09-24T12:34:46;12.83;;;6.30;;
71360;SDS011;59166;48.908;1.870;2022-09-24T12:39:53;11.77;;;5.50;;
71360;SDS011;59166;48.908;1.870;2022-09-24T12:45:00;13.45;;;6.47;;
71360;SDS011;59166;48.908;1.870;2022-09-24T12:50:03;13.50;;;6.70;;
71360;SDS011;59166;48.908;1.870;2022-09-24T12:55:17;14.03;;;6.00;;
71360;SDS011;59166;48.908;1.870;2022-09-24T13:00:37;12.30;;;5.40;;
71360;SDS011;59166;48.908;1.870;2022-09-24T13:05:45;11.13;;;5.38;;
71360;SDS011;59166;48.908;1.870;2022-09-24T13:10:52;10.87;;;5.23;;
71360;SDS011;59166;48.908;1.870;2022-09-24T13:16:00;11.38;;;5.28;;
71360;SDS011;59166;48.908;1.870;2022-09-24T13:21:03;12.55;;;5.28;;
71360;SDS011;59166;48.908;1.870;2022-09-24T13:26:06;11.33;;;5.23;;
71360;SDS011;59166;48.908;1.870;2022-09-24T13:31:13;11.33;;;5.20;;
71360;SDS011;59166;48.908;1.870;2022-09-24T13:36:22;11.23;;;5.20;;
71360;SDS011;59166;48.908;1.870;2022-09-24T13:41:29;12.73;;;5.78;;
71360;SDS011;59166;48.908;1.870;2022-09-24T13:46:39;12.23;;;5.47;;
71360;SDS011;59166;48.908;1.870;2022-09-24T13:51:43;12.15;;;5.10;;
71360;SDS011;59166;48.908;1.870;2022-09-24T13:56:55;12.30;;;5.72;;
71360;SDS011;59166;48.908;1.870;2022-09-24T14:01:58;12.20;;;5.57;;
71360;SDS011;59166;48.908;1.870;2022-09-24T14:07:00;13.40;;;5.95;;
71360;SDS011;59166;48.908;1.870;2022-09-24T14:12:20;11.90;;;5.90;;
71360;SDS011;59166;48.908;1.870;2022-09-24T14:17:22;11.93;;;5.87;;
71360;SDS011;59166;48.908;1.870;2022-09-24T14:22:25;12.07;;;6.15;;
71360;SDS011;59166;48.908;1.870;2022-09-24T14:27:34;13.60;;;6.38;;
71360;SDS011;59166;48.908;1.870;2022-09-24T14:32:41;12.10;;;6.20;;
71360;SDS011;59166;48.908;1.870;2022-09-24T14:37:45;12.45;;;6.35;;
71360;SDS011;59166;48.908;1.870;2022-09-24T14:42:48;13.35;;;5.82;;
71360;SDS011;59166;48.908;1.870;2022-09-24T14:48:02;13.10;;;5.53;;
71360;SDS011;59166;48.908;1.870;2022-09-24T14:53:24;12.93;;;5.97;;
71360;SDS011;59166;48.908;1.870;2022-09-24T14:58:33;16.50;;;7.13;;
71360;SDS011;59166;48.908;1.870;2022-09-24T15:03:38;15.33;;;6.60;;
71360;SDS011;59166;48.908;1.870;2022-09-24T15:08:42;12.17;;;5.90;;
71360;SDS011;59166;48.908;1.870;2022-09-24T15:13:56;11.43;;;5.50;;
71360;SDS011;59166;48.908;1.870;2022-09-24T15:19:10;10.55;;;4.43;;
71360;SDS011;59166;48.908;1.870;2022-09-24T15:24:17;8.70;;;3.80;;
71360;SDS011;59166;48.908;1.870;2022-09-24T15:29:19;7.28;;;3.03;;
71360;SDS011;59166;48.908;1.870;2022-09-24T15:34:22;8.88;;;4.25;;
71360;SDS011;59166;48.908;1.870;2022-09-24T15:39:23;6.97;;;2.90;;
71360;SDS011;59166;48.908;1.870;2022-09-24T15:44:25;7.18;;;2.70;;
71360;SDS011;59166;48.908;1.870;2022-09-24T15:49:27;6.82;;;2.35;;
71360;SDS011;59166;48.908;1.870;2022-09-24T15:54:28;7.83;;;3.07;;
71360;SDS011;59166;48.908;1.870;2022-09-24T15:59:29;7.53;;;2.92;;
71360;SDS011;59166;48.908;1.870;2022-09-24T16:04:31;7.97;;;3.10;;
71360;SDS011;59166;48.908;1.870;2022-09-24T16:09:32;8.68;;;3.38;;
71360;SDS011;59166;48.908;1.870;2022-09-24T16:14:33;8.18;;;3.28;;
71360;SDS011;59166;48.908;1.870;2022-09-24T16:19:35;8.93;;;3.53;;
71360;SDS011;59166;48.908;1.870;2022-09-24T16:24:36;8.43;;;3.25;;
71360;SDS011;59166;48.908;1.870;2022-09-24T16:29:37;9.07;;;3.77;;
71360;SDS011;59166;48.908;1.870;2022-09-24T16:34:39;10.85;;;4.28;;
71360;SDS011;59166;48.908;1.870;2022-09-24T16:39:40;11.03;;;3.07;;
71360;SDS011;59166;48.908;1.870;2022-09-24T16:44:41;10.05;;;3.03;;
71360;SDS011;59166;48.908;1.870;2022-09-24T16:49:43;8.63;;;2.60;;
71360;SDS011;59166;48.908;1.870;2022-09-24T16:54:44;7.90;;;2.85;;
71360;SDS011;59166;48.908;1.870;2022-09-24T16:59:45;6.97;;;2.30;;
71360;SDS011;59166;48.908;1.870;2022-09-24T17:04:47;6.63;;;2.40;;
71360;SDS011;59166;48.908;1.870;2022-09-24T17:09:48;7.03;;;2.40;;
71360;SDS011;59166;48.908;1.870;2022-09-24T17:14:48;6.87;;;2.30;;
71360;SDS011;59166;48.908;1.870;2022-09-24T17:19:51;8.00;;;1.88;;
71360;SDS011;59166;48.908;1.870;2022-09-24T17:24:51;8.17;;;2.27;;
71360;SDS011;59166;48.908;1.870;2022-09-24T17:29:52;7.88;;;2.40;;
71360;SDS011;59166;48.908;1.870;2022-09-24T17:34:55;6.73;;;2.27;;
71360;SDS011;59166;48.908;1.870;2022-09-24T17:39:55;5.38;;;1.80;;
71360;SDS011;59166;48.908;1.870;2022-09-24T17:44:56;6.33;;;1.73;;
71360;SDS011;59166;48.908;1.870;2022-09-24T17:49:58;6.57;;;1.90;;
71360;SDS011;59166;48.908;1.870;2022-09-24T17:54:59;6.63;;;2.00;;
71360;SDS011;59166;48.908;1.870;2022-09-24T18:00:00;6.45;;;2.10;;
71360;SDS011;59166;48.908;1.870;2022-09-24T18:05:03;6.97;;;2.50;;
71360;SDS011;59166;48.908;1.870;2022-09-24T18:10:04;7.97;;;2.80;;
71360;SDS011;59166;48.908;1.870;2022-09-24T18:15:06;7.90;;;2.97;;
71360;SDS011;59166;48.908;1.870;2022-09-24T18:20:09;8.30;;;3.10;;
71360;SDS011;59166;48.908;1.870;2022-09-24T18:25:10;7.77;;;3.20;;
71360;SDS011;59166;48.908;1.870;2022-09-24T18:30:30;8.43;;;3.53;;
71360;SDS011;59166;48.908;1.870;2022-09-24T18:35:32;9.70;;;4.67;;
71360;SDS011;59166;48.908;1.870;2022-09-24T18:40:33;12.07;;;5.30;;
71360;SDS011;59166;48.908;1.870;2022-09-24T18:45:34;11.45;;;4.82;;
71360;SDS011;59166;48.908;1.870;2022-09-24T18:50:49;10.03;;;5.47;;
71360;SDS011;59166;48.908;1.870;2022-09-24T18:55:53;12.05;;;5.25;;
71360;SDS011;59166;48.908;1.870;2022-09-24T19:00:56;10.33;;;5.17;;
71360;SDS011;59166;48.908;1.870;2022-09-24T19:06:00;10.57;;;5.22;;
71360;SDS011;59166;48.908;1.870;2022-09-24T19:11:04;12.00;;;6.13;;
71360;SDS011;59166;48.908;1.870;2022-09-24T19:16:08;12.23;;;6.40;;
71360;SDS011;59166;48.908;1.870;2022-09-24T19:21:11;15.17;;;7.13;;
71360;SDS011;59166;48.908;1.870;2022-09-24T19:26:13;13.05;;;6.63;;
71360;SDS011;59166;48.908;1.870;2022-09-24T19:31:16;13.18;;;7.30;;
71360;SDS011;59166;48.908;1.870;2022-09-24T19:36:20;12.23;;;6.73;;
71360;SDS011;59166;48.908;1.870;2022-09-24T19:41:21;13.07;;;7.00;;
71360;SDS011;59166;48.908;1.870;2022-09-24T19:46:24;12.82;;;6.93;;
71360;SDS011;59166;48.908;1.870;2022-09-24T19:51:28;12.63;;;7.50;;
71360;SDS011;59166;48.908;1.870;2022-09-24T19:56:30;13.73;;;6.30;;
71360;SDS011;59166;48.908;1.870;2022-09-24T20:01:31;12.93;;;6.38;;
71360;SDS011;59166;48.908;1.870;2022-09-24T20:06:36;13.47;;;6.93;;
71360;SDS011;59166;48.908;1.870;2022-09-24T20:11:38;13.50;;;7.10;;
71360;SDS011;59166;48.908;1.870;2022-09-24T20:16:39;12.73;;;7.20;;
71360;SDS011;59166;48.908;1.870;2022-09-24T20:21:41;13.73;;;7.23;;
71360;SDS011;59166;48.908;1.870;2022-09-24T20:26:42;13.77;;;6.72;;
71360;SDS011;59166;48.908;1.870;2022-09-24T20:31:43;13.73;;;6.40;;
71360;SDS011;59166;48.908;1.870;2022-09-24T20:36:48;13.67;;;7.10;;
71360;SDS011;59166;48.908;1.870;2022-09-24T20:41:49;12.60;;;6.70;;
71360;SDS011;59166;48.908;1.870;2022-09-24T20:46:50;14.73;;;6.95;;
71360;SDS011;59166;48.908;1.870;2022-09-24T20:51:53;14.03;;;7.03;;
71360;SDS011;59166;48.908;1.870;2022-09-24T20:56:54;14.35;;;7.45;;
71360;SDS011;59166;48.908;1.870;2022-09-24T21:01:55;13.00;;;6.27;;
71360;SDS011;59166;48.908;1.870;2022-09-24T21:07:02;12.27;;;6.72;;
71360;SDS011;59166;48.908;1.870;2022-09-24T21:12:03;12.98;;;6.47;;
71360;SDS011;59166;48.908;1.870;2022-09-24T21:17:04;13.57;;;5.70;;
71360;SDS011;59166;48.908;1.870;2022-09-24T21:22:06;10.97;;;5.00;;
71360;SDS011;59166;48.908;1.870;2022-09-24T21:27:08;11.57;;;5.05;;
71360;SDS011;59166;48.908;1.870;2022-09-24T21:32:12;15.00;;;5.57;;
71360;SDS011;59166;48.908;1.870;2022-09-24T21:37:15;12.52;;;5.18;;
71360;SDS011;59166;48.908;1.870;2022-09-24T21:42:17;14.10;;;5.25;;
71360;SDS011;59166;48.908;1.870;2022-09-24T21:47:21;13.27;;;5.43;;
71360;SDS011;59166;48.908;1.870;2022-09-24T21:52:26;11.50;;;5.30;;
71360;SDS011;59166;48.908;1.870;2022-09-24T21:57:31;12.18;;;5.20;;
71360;SDS011;59166;48.908;1.870;2022-09-24T22:02:32;11.70;;;5.57;;
71360;SDS011;59166;48.908;1.870;2022-09-24T22:07:34;12.23;;;5.63;;
71360;SDS011;59166;48.908;1.870;2022-09-24T22:12:35;13.23;;;5.20;;
71360;SDS011;59166;48.908;1.870;2022-09-24T22:17:36;11.07;;;5.07;;
71360;SDS011;59166;48.908;1.870;2022-09-24T22:22:38;12.63;;;4.90;;
71360;SDS011;59166;48.908;1.870;2022-09-24T22:27:39;11.77;;;4.73;;
71360;SDS011;59166;48.908;1.870;2022-09-24T22:32:40;10.93;;;4.30;;
71360;SDS011;59166;48.908;1.870;2022-09-24T22:37:43;9.52;;;3.92;;
71360;SDS011;59166;48.908;1.870;2022-09-24T22:42:45;8.23;;;3.93;;
71360;SDS011;59166;48.908;1.870;2022-09-24T22:47:45;11.00;;;4.10;;
71360;SDS011;59166;48.908;1.870;2022-09-24T22:52:48;10.33;;;3.70;;
71360;SDS011;59166;48.908;1.870;2022-09-24T22:57:49;11.37;;;3.40;;
71360;SDS011;59166;48.908;1.870;2022-09-24T23:02:50;11.60;;;3.33;;
71360;SDS011;59166;48.908;1.870;2022-09-24T23:07:53;9.70;;;3.15;;
71360;SDS011;59166;48.908;1.870;2022-09-24T23:12:54;8.80;;;3.10;;
71360;SDS011;59166;48.908;1.870;2022-09-24T23:17:56;9.13;;;2.67;;
71360;SDS011;59166;48.908;1.870;2022-09-24T23:23:00;8.13;;;2.70;;
71360;SDS011;59166;48.908;1.870;2022-09-24T23:28:01;8.47;;;2.73;;
71360;SDS011;59166;48.908;1.870;2022-09-24T23:33:02;9.50;;;2.60;;
71360;SDS011;59166;48.908;1.870;2022-09-24T23:38:04;8.30;;;2.60;;
71360;SDS011;59166;48.908;1.870;2022-09-24T23:43:05;10.50;;;2.78;;
71360;SDS011;59166;48.908;1.870;2022-09-24T23:48:06;9.83;;;2.40;;
71360;SDS011;59166;48.908;1.870;2022-09-24T23:53:08;8.55;;;2.30;;
71360;SDS011;59166;48.908;1.870;2022-09-24T23:58:09;6.90;;;2.53;;
